Time;durP1;ratioP1;P1;durP2;ratioP2;P2;SDS_P1;SDS_P2;PMS_P1;PMS_P2;Temp;Humidity;BMP_temperature;BMP_pressure;BME280_temperature;BME280_humidity;BME280_pressure;Samples;Min_cycle;Max_cycle;Signal;HPM_P1;HPM_P2
2023/08/29 00:00:15;;;;;;;;;1.00;1.00;;;;;18.54;45.68;100869.88;5079870;27;45464;-61
2023/08/29 00:02:43;;;;;;;;;3.25;2.50;;;;;18.52;46.01;100868.13;5079717;28;45304;-60
2023/08/29 00:05:09;;;;;;;;;2.00;2.00;;;;;18.55;45.92;100875.13;5079660;27;45407;-61
2023/08/29 00:07:35;;;;;;;;;0.50;0.00;;;;;18.54;46.17;100880.50;5079524;28;45384;-61
2023/08/29 00:10:01;;;;;;;;;1.00;1.00;;;;;18.55;45.94;100890.22;5079493;27;45926;-61
2023/08/29 00:12:26;;;;;;;;;3.25;3.25;;;;;18.54;46.05;100883.19;5080043;27;45373;-61
2023/08/29 00:14:52;;;;;;;;;2.00;2.00;;;;;18.52;46.29;100884.09;5112432;27;45357;-61
2023/08/29 00:17:17;;;;;;;;;3.75;3.50;;;;;18.51;46.25;100878.84;5079616;27;46110;-61
2023/08/29 00:19:42;;;;;;;;;3.00;3.00;;;;;18.51;46.03;100874.41;5082280;28;46265;-61
2023/08/29 00:22:08;;;;;;;;;1.00;1.00;;;;;18.49;46.33;100886.06;5083415;27;45149;-61
2023/08/29 00:24:33;;;;;;;;;2.75;2.75;;;;;18.48;46.31;100885.19;5083098;27;45426;-61
2023/08/29 00:26:58;;;;;;;;;2.25;2.00;;;;;18.47;46.30;100880.78;5082964;27;46103;-61
2023/08/29 00:29:26;;;;;;;;;2.25;2.25;;;;;18.46;46.49;100884.38;5082969;27;45378;-61
2023/08/29 00:31:51;;;;;;;;;2.00;2.00;;;;;18.43;46.10;100879.22;5083407;27;45443;-61
2023/08/29 00:34:16;;;;;;;;;3.00;3.00;;;;;18.44;46.20;100882.72;5082952;27;45265;-61
2023/08/29 00:36:42;;;;;;;;;4.00;3.00;;;;;18.42;46.53;100872.16;5082849;28;45376;-62
2023/08/29 00:39:07;;;;;;;;;3.00;3.00;;;;;18.39;46.66;100874.97;5082965;27;45310;-61
2023/08/29 00:41:32;;;;;;;;;3.00;2.00;;;;;18.38;46.72;100867.91;5082620;28;49897;-61
2023/08/29 00:43:57;;;;;;;;;2.00;2.00;;;;;18.37;46.38;100868.84;5082912;27;45407;-61
2023/08/29 00:46:25;;;;;;;;;2.00;2.00;;;;;18.34;46.74;100866.34;5083111;27;46203;-61
2023/08/29 00:48:50;;;;;;;;;2.50;2.00;;;;;18.34;46.57;100864.53;5081572;28;45278;-61
2023/08/29 00:51:17;;;;;;;;;3.75;3.00;;;;;18.32;46.42;100868.19;5082703;27;45862;-61
2023/08/29 00:53:43;;;;;;;;;3.00;2.50;;;;;18.30;46.46;100865.59;5082633;28;45349;-62
2023/08/29 00:56:09;;;;;;;;;2.75;2.25;;;;;18.30;46.50;100865.59;5082654;27;45352;-61
2023/08/29 00:58:35;;;;;;;;;3.00;3.00;;;;;18.29;46.77;100861.22;5082658;27;45306;-62
2023/08/29 01:01:01;;;;;;;;;4.00;3.00;;;;;18.28;46.50;100869.25;5115831;27;45517;-62
2023/08/29 01:03:26;;;;;;;;;3.50;3.50;;;;;18.25;46.70;100869.38;5082655;27;45270;-61
2023/08/29 01:05:51;;;;;;;;;3.00;3.00;;;;;18.25;47.06;100861.41;5082392;27;45604;-62
2023/08/29 01:08:17;;;;;;;;;3.25;3.00;;;;;18.25;46.65;100869.38;5082134;28;49092;-62
2023/08/29 01:10:55;;;;;;;;;3.00;2.00;;;;;18.23;46.70;100869.47;5082434;27;45299;-62
2023/08/29 01:13:39;;;;;;;;;2.75;2.75;;;;;18.22;46.99;100866.88;5082656;27;45275;-61
2023/08/29 01:16:07;;;;;;;;;2.00;1.50;;;;;18.20;47.02;100858.97;5082104;27;45300;-61
2023/08/29 01:18:36;;;;;;;;;3.75;3.00;;;;;18.18;46.99;100859.00;5082448;27;45248;-62
2023/08/29 01:21:45;;;;;;;;;2.50;2.50;;;;;18.16;46.81;100850.25;5082410;27;45276;-62
2023/08/29 01:24:16;;;;;;;;;2.25;2.25;;;;;18.14;46.97;100851.25;5081804;27;45551;-62
2023/08/29 01:26:44;;;;;;;;;5.25;4.25;;;;;18.12;46.71;100851.31;5081732;27;45343;-62
2023/08/29 01:29:10;;;;;;;;;3.25;2.75;;;;;18.11;46.96;100852.25;5082710;27;45327;-62
2023/08/29 01:31:36;;;;;;;;;3.25;3.25;;;;;18.10;47.06;100855.84;5082187;27;45276;-62
2023/08/29 01:34:02;;;;;;;;;3.00;3.00;;;;;18.08;47.04;100859.50;5082342;27;45580;-62
2023/08/29 01:36:37;;;;;;;;;3.00;3.00;;;;;18.07;47.29;100858.63;5081820;27;46317;-61
2023/08/29 01:39:03;;;;;;;;;2.25;2.25;;;;;18.04;47.15;100861.44;5082034;28;45178;-62
2023/08/29 01:41:28;;;;;;;;;3.50;3.50;;;;;18.03;47.32;100857.03;5081967;28;45426;-62
2023/08/29 01:43:54;;;;;;;;;3.25;3.25;;;;;18.04;47.23;100864.09;5082085;27;45451;-62
2023/08/29 01:46:19;;;;;;;;;4.00;4.00;;;;;18.02;47.36;100864.16;5081836;27;45322;-61
2023/08/29 01:48:45;;;;;;;;;4.25;4.25;;;;;17.97;47.49;100858.16;5081896;27;45331;-62
2023/08/29 01:51:11;;;;;;;;;4.00;4.00;;;;;17.97;47.50;100865.28;5082004;27;45352;-62
2023/08/29 01:53:38;;;;;;;;;4.50;3.00;;;;;17.92;47.44;100851.28;5081541;27;45571;-62
2023/08/29 01:56:06;;;;;;;;;6.75;4.75;;;;;17.96;47.28;100864.44;5081548;27;46177;-61
2023/08/29 01:58:33;;;;;;;;;2.00;2.00;;;;;17.93;47.42;100856.53;5081799;27;45246;-62
2023/08/29 02:00:59;;;;;;;;;3.25;3.00;;;;;17.93;47.59;100853.88;5080417;28;45351;-62
2023/08/29 02:03:24;;;;;;;;;3.50;3.50;;;;;17.92;47.27;100854.78;5081521;27;45461;-62
2023/08/29 02:05:51;;;;;;;;;3.50;3.00;;;;;17.90;47.65;100848.72;5081178;28;51210;-62
2023/08/29 02:08:16;;;;;;;;;5.00;3.75;;;;;17.91;47.54;100853.09;5081547;27;45398;-62
2023/08/29 02:10:42;;;;;;;;;4.00;4.00;;;;;17.92;47.65;100867.25;5081475;27;45326;-61
2023/08/29 02:13:09;;;;;;;;;3.00;3.00;;;;;17.90;47.72;100863.78;5081195;27;58567;-61
2023/08/29 02:15:34;;;;;;;;;4.50;4.25;;;;;17.87;47.56;100854.13;5081389;27;47136;-62
2023/08/29 02:18:00;;;;;;;;;5.00;4.00;;;;;17.87;47.56;100868.31;5081506;27;45232;-62
2023/08/29 02:20:25;;;;;;;;;3.25;3.00;;;;;17.87;47.65;100864.78;5081381;28;45216;-62
2023/08/29 02:22:50;;;;;;;;;4.00;4.00;;;;;17.81;47.88;100865.91;5081130;28;47707;-62
2023/08/29 02:25:16;;;;;;;;;5.25;4.25;;;;;17.85;47.97;100867.50;5080953;27;50079;-62
2023/08/29 02:27:41;;;;;;;;;8.25;5.00;;;;;17.84;47.95;100870.22;5081354;27;45256;-62
2023/08/29 02:30:07;;;;;;;;;3.25;3.25;;;;;17.82;47.91;100875.63;5080997;28;48853;-61
2023/08/29 02:32:34;;;;;;;;;4.25;4.25;;;;;17.80;47.87;100874.81;5114268;27;45496;-62
2023/08/29 02:35:00;;;;;;;;;4.00;4.00;;;;;17.80;47.94;100884.59;5080812;27;45339;-62
2023/08/29 02:37:25;;;;;;;;;2.25;2.25;;;;;17.77;48.00;100880.25;5080928;27;45714;-62
2023/08/29 02:39:50;;;;;;;;;5.00;3.25;;;;;17.77;47.96;100879.38;5081185;27;45378;-62
2023/08/29 02:42:16;;;;;;;;;4.00;3.00;;;;;17.75;47.98;100874.13;5079302;28;45325;-62
2023/08/29 02:44:41;;;;;;;;;5.00;5.00;;;;;17.74;48.02;100876.88;5080949;27;46277;-62
2023/08/29 02:47:07;;;;;;;;;4.25;4.00;;;;;17.73;48.20;100876.00;5080915;27;45313;-62
2023/08/29 02:49:32;;;;;;;;;5.25;4.25;;;;;17.73;48.26;100867.16;5081111;27;45320;-62
2023/08/29 02:51:57;;;;;;;;;3.25;3.00;;;;;17.71;48.21;100867.22;5113747;27;45558;-62
2023/08/29 02:54:23;;;;;;;;;5.00;5.00;;;;;17.71;48.14;100872.56;5089428;27;45695;-62
2023/08/29 02:56:48;;;;;;;;;5.75;4.25;;;;;17.70;48.29;100868.16;5080747;27;45185;-62
2023/08/29 02:59:13;;;;;;;;;4.00;3.75;;;;;17.70;48.04;100869.00;5081057;27;45169;-62
2023/08/29 03:01:39;;;;;;;;;3.25;3.25;;;;;17.71;48.38;100867.22;5081114;27;45321;-62
2023/08/29 03:04:04;;;;;;;;;5.00;5.00;;;;;17.70;48.18;100854.88;5080075;28;56425;-62
2023/08/29 03:06:29;;;;;;;;;3.50;3.25;;;;;17.72;48.47;100853.00;5080553;27;45192;-62
2023/08/29 03:08:55;;;;;;;;;4.00;3.00;;;;;17.71;48.23;100856.59;5080626;27;45223;-62
2023/08/29 03:11:20;;;;;;;;;3.75;3.75;;;;;17.72;48.59;100850.34;5080721;28;45212;-62
2023/08/29 03:13:45;;;;;;;;;5.50;4.00;;;;;17.69;48.66;100848.69;5080473;27;46126;-62
2023/08/29 03:16:12;;;;;;;;;4.00;3.00;;;;;17.70;48.47;100858.38;5080725;27;45200;-62
2023/08/29 03:18:37;;;;;;;;;4.25;3.75;;;;;17.69;49.05;100847.81;5113406;27;45328;-62
2023/08/29 03:21:06;;;;;;;;;6.25;4.50;;;;;17.71;48.62;100845.97;5080185;28;53138;-62
2023/08/29 03:23:31;;;;;;;;;3.25;3.00;;;;;17.70;48.73;100845.09;5078875;28;46098;-62
2023/08/29 03:26:07;;;;;;;;;2.00;2.00;;;;;17.70;48.97;100842.44;5112723;27;49709;-63
2023/08/29 03:28:34;;;;;;;;;3.50;2.75;;;;;17.70;48.77;100852.22;5080586;27;45525;-62
2023/08/29 03:31:13;;;;;;;;;5.00;4.50;;;;;17.71;49.01;100849.47;5080374;27;45493;-62
2023/08/29 03:33:39;;;;;;;;;5.00;4.25;;;;;17.72;48.98;100839.69;5080068;27;46293;-62
2023/08/29 03:36:05;;;;;;;;;7.50;5.00;;;;;17.72;48.91;100837.03;5080241;27;45346;-62
2023/08/29 03:38:35;;;;;;;;;4.25;4.00;;;;;17.72;49.01;100839.69;5079912;27;45263;-62
2023/08/29 03:41:00;;;;;;;;;6.75;5.00;;;;;17.71;48.69;100841.50;5080063;27;45529;-62
2023/08/29 03:43:30;;;;;;;;;3.00;3.00;;;;;17.70;48.87;100837.13;5079916;27;45338;-62
2023/08/29 03:45:59;;;;;;;;;5.00;5.00;;;;;17.70;48.87;100838.94;5080088;27;45331;-62
2023/08/29 03:48:24;;;;;;;;;6.75;3.75;;;;;17.70;49.02;100836.28;5080334;27;45440;-62
2023/08/29 03:50:50;;;;;;;;;4.00;4.00;;;;;17.65;49.26;100833.78;5080086;27;45544;-62
2023/08/29 03:53:15;;;;;;;;;4.00;4.00;;;;;17.69;49.13;100838.03;5078522;28;45238;-62
2023/08/29 03:55:41;;;;;;;;;6.00;5.00;;;;;17.70;49.12;100841.59;5079938;27;45290;-62
2023/08/29 03:58:06;;;;;;;;;6.75;5.50;;;;;17.69;49.22;100843.34;5080099;27;45256;-61
2023/08/29 04:00:32;;;;;;;;;6.50;6.00;;;;;17.69;49.14;100835.38;5078830;28;45290;-62
2023/08/29 04:02:59;;;;;;;;;7.00;7.00;;;;;17.69;49.03;100821.25;5079692;27;45957;-62
2023/08/29 04:05:25;;;;;;;;;7.00;5.50;;;;;17.67;49.08;100834.59;5112464;27;45358;-62
2023/08/29 04:07:51;;;;;;;;;7.75;5.50;;;;;17.65;49.28;100827.63;5079452;27;45458;-61
2023/08/29 04:10:16;;;;;;;;;5.75;5.75;;;;;17.64;49.14;100832.06;5079516;27;45330;-62
2023/08/29 04:12:42;;;;;;;;;8.50;7.25;;;;;17.67;49.23;100836.38;5079520;28;46904;-62
2023/08/29 04:15:10;;;;;;;;;6.25;5.00;;;;;17.64;49.18;100832.06;5079855;27;45358;-62
2023/08/29 04:17:35;;;;;;;;;7.50;5.50;;;;;17.64;49.09;100828.56;5079646;27;45255;-62
2023/08/29 04:20:00;;;;;;;;;7.50;6.00;;;;;17.63;49.30;100826.81;5079839;27;45219;-62
2023/08/29 04:22:26;;;;;;;;;7.75;5.75;;;;;17.60;49.36;100819.00;5079295;27;45280;-62
2023/08/29 04:24:52;;;;;;;;;4.75;4.75;;;;;17.60;49.29;100829.63;5079490;28;45264;-62
2023/08/29 04:27:18;;;;;;;;;6.50;6.00;;;;;17.57;49.24;100822.63;5079474;27;45314;-62
2023/08/29 04:29:44;;;;;;;;;6.75;4.25;;;;;17.54;49.66;100826.25;5079587;27;45504;-62
2023/08/29 04:32:09;;;;;;;;;8.25;6.00;;;;;17.54;49.30;100820.09;5094971;27;47101;-62
2023/08/29 04:34:34;;;;;;;;;6.50;6.00;;;;;17.53;49.55;100813.94;5079745;27;45351;-62
2023/08/29 04:37:00;;;;;;;;;8.75;6.75;;;;;17.51;49.60;100813.13;5112296;27;45551;-62
2023/08/29 04:39:25;;;;;;;;;8.25;6.00;;;;;17.50;49.46;100818.50;5079332;28;49552;-62
2023/08/29 04:41:50;;;;;;;;;6.25;6.25;;;;;17.48;49.54;100821.25;5079042;27;46139;-62
2023/08/29 04:44:16;;;;;;;;;5.00;5.00;;;;;17.46;49.35;100815.13;5079087;27;54835;-62
2023/08/29 04:46:41;;;;;;;;;7.50;7.50;;;;;17.46;49.49;100819.53;5079002;27;49776;-62
2023/08/29 04:49:06;;;;;;;;;8.00;8.00;;;;;17.46;49.61;100822.19;5079109;28;52504;-62
2023/08/29 04:51:34;;;;;;;;;9.50;8.00;;;;;17.45;49.52;100825.81;5078922;27;46366;-61
2023/08/29 04:54:00;;;;;;;;;7.25;7.00;;;;;17.42;49.75;100821.50;5078090;28;45802;-62
2023/08/29 04:56:25;;;;;;;;;11.00;6.50;;;;;17.42;49.82;100825.91;5079167;27;45382;-62
2023/08/29 04:58:50;;;;;;;;;6.75;6.00;;;;;17.41;49.66;100834.81;5079254;27;47963;-62
2023/08/29 05:01:15;;;;;;;;;6.25;6.25;;;;;17.39;49.80;100832.22;5111877;27;48014;-62
2023/08/29 05:03:41;;;;;;;;;7.50;6.75;;;;;17.35;49.77;100823.53;5078996;27;52738;-62
2023/08/29 05:06:06;;;;;;;;;9.25;7.25;;;;;17.37;49.77;100828.75;5081712;28;51870;-62
2023/08/29 05:08:34;;;;;;;;;9.75;7.75;;;;;17.35;49.86;100822.66;5082653;27;45255;-62
2023/08/29 05:11:00;;;;;;;;;6.00;6.00;;;;;17.33;49.92;100827.16;5082138;28;47325;-61
2023/08/29 05:13:26;;;;;;;;;8.50;6.50;;;;;17.30;50.44;100824.66;5082516;27;45323;-62
2023/08/29 05:15:51;;;;;;;;;7.50;5.50;;;;;17.30;49.70;100822.00;5115177;27;46727;-62
2023/08/29 05:18:16;;;;;;;;;5.75;4.50;;;;;17.29;50.16;100833.53;5082039;28;45309;-62
2023/08/29 05:20:43;;;;;;;;;8.75;7.25;;;;;17.26;49.96;100831.88;5081777;27;46404;-62
2023/08/29 05:23:08;;;;;;;;;6.25;6.25;;;;;17.27;50.17;100838.03;5080420;28;45338;-62
2023/08/29 05:25:33;;;;;;;;;8.00;8.00;;;;;17.25;49.97;100829.28;5080863;27;51905;-62
2023/08/29 05:27:59;;;;;;;;;9.50;8.00;;;;;17.24;50.17;100833.72;5081672;27;45471;-62
2023/08/29 05:30:24;;;;;;;;;7.25;7.25;;;;;17.21;50.28;100828.53;5081914;27;46322;-62
2023/08/29 05:32:49;;;;;;;;;8.50;7.75;;;;;17.20;50.36;100834.78;5082271;28;45246;-62
2023/08/29 05:35:15;;;;;;;;;6.50;6.50;;;;;17.19;50.19;100835.69;5082137;27;45307;-62
2023/08/29 05:37:40;;;;;;;;;8.00;8.00;;;;;17.19;50.12;100835.69;5082077;28;45495;-62
2023/08/29 05:40:06;;;;;;;;;21.75;16.75;;;;;17.17;50.40;100826.94;5081721;28;46238;-62
2023/08/29 05:42:31;;;;;;;;;14.75;11.50;;;;;17.16;50.22;100825.22;5082508;28;45219;-62
2023/08/29 05:44:57;;;;;;;;;7.25;7.25;;;;;17.14;50.24;100819.94;5081871;27;45240;-62
2023/08/29 05:47:22;;;;;;;;;9.00;8.25;;;;;17.15;50.26;100821.69;5082194;28;45206;-62
2023/08/29 05:49:47;;;;;;;;;9.25;9.25;;;;;17.12;50.32;100815.63;5081765;28;46189;-62
2023/08/29 05:52:13;;;;;;;;;12.25;11.00;;;;;17.12;50.34;100816.50;5081826;28;45285;-62
2023/08/29 05:54:38;;;;;;;;;10.75;7.00;;;;;17.09;50.46;100810.44;5081538;28;46200;-62
2023/08/29 05:57:05;;;;;;;;;9.75;7.25;;;;;17.09;50.64;100813.09;5114648;27;45357;-62
2023/08/29 05:59:30;;;;;;;;;10.75;10.00;;;;;17.06;50.86;100812.28;5081479;27;45379;-62
2023/08/29 06:01:56;;;;;;;;;8.50;8.50;;;;;17.06;50.87;100822.06;5081833;27;45353;-62
2023/08/29 06:04:21;;;;;;;;;12.75;9.00;;;;;17.04;51.03;100819.47;5081630;27;45347;-62
2023/08/29 06:06:50;;;;;;;;;11.00;10.25;;;;;17.04;51.09;100811.50;5071010;27;45310;-61
2023/08/29 06:09:15;;;;;;;;;7.25;7.25;;;;;17.04;50.92;100815.94;5071795;28;45471;-62
2023/08/29 06:11:41;;;;;;;;;10.75;10.00;;;;;17.01;51.20;100819.56;5080654;28;45178;-61
2023/08/29 06:14:06;;;;;;;;;9.50;8.50;;;;;17.03;51.17;100824.81;5081481;27;45388;-61
2023/08/29 06:16:32;;;;;;;;;12.00;8.25;;;;;17.01;51.52;100818.72;5080797;27;45481;-63
2023/08/29 06:18:57;;;;;;;;;12.00;10.25;;;;;17.01;51.48;100818.72;5081268;27;46089;-61
2023/08/29 06:21:22;;;;;;;;;10.00;9.25;;;;;17.03;51.40;100819.50;5080847;27;45266;-62
2023/08/29 06:23:48;;;;;;;;;11.00;9.75;;;;;17.04;51.57;100823.91;5076676;27;45404;-61
2023/08/29 06:26:15;;;;;;;;;12.50;10.50;;;;;17.04;51.59;100823.91;5080798;27;45362;-61
2023/08/29 06:28:41;;;;;;;;;7.75;7.50;;;;;17.05;51.71;100826.47;5081140;27;45410;-61
2023/08/29 06:31:09;;;;;;;;;12.00;11.00;;;;;17.08;51.60;100835.25;5081134;27;45253;-61
2023/08/29 06:33:37;;;;;;;;;8.75;7.25;;;;;17.10;51.63;100847.56;5096804;27;45295;-61
2023/08/29 06:36:02;;;;;;;;;9.00;8.50;;;;;17.14;51.47;100848.28;5080625;27;45430;-61
2023/08/29 06:38:29;;;;;;;;;15.50;12.25;;;;;17.15;51.67;100842.06;5080851;28;45985;-61
2023/08/29 06:40:56;;;;;;;;;10.25;10.00;;;;;17.16;51.55;100847.31;5080921;27;45375;-60
2023/08/29 06:43:23;;;;;;;;;16.50;15.75;;;;;17.11;51.65;100835.16;5080975;28;45365;-60
2023/08/29 06:45:48;;;;;;;;;11.75;7.25;;;;;17.20;51.54;100848.91;5096629;27;45395;-60
2023/08/29 06:48:13;;;;;;;;;11.75;10.75;;;;;17.22;51.80;100841.75;5113403;27;46938;-60
2023/08/29 06:50:39;;;;;;;;;10.00;9.00;;;;;17.25;51.79;100847.88;5081017;27;45173;-60
2023/08/29 06:53:04;;;;;;;;;11.50;8.75;;;;;17.25;52.11;100837.25;5080707;27;45764;-60
2023/08/29 06:55:32;;;;;;;;;21.00;21.00;;;;;17.29;52.08;100836.19;5080837;27;45613;-60
2023/08/29 06:57:57;;;;;;;;;11.00;11.00;;;;;17.29;52.01;100833.53;5113789;27;47403;-60
2023/08/29 07:00:23;;;;;;;;;14.50;13.00;;;;;17.33;51.92;100836.00;5080902;27;45204;-60
2023/08/29 07:02:50;;;;;;;;;23.50;21.00;;;;;17.37;52.01;100844.69;5080699;27;45415;-60
2023/08/29 07:05:15;;;;;;;;;27.75;23.50;;;;;17.40;51.70;100833.09;5080730;27;45322;-60
2023/08/29 07:07:40;;;;;;;;;15.00;14.25;;;;;17.43;51.84;100846.25;5079879;28;45646;-60
2023/08/29 07:10:06;;;;;;;;;10.25;9.50;;;;;17.46;51.96;100847.00;5080440;28;48563;-60
2023/08/29 07:12:32;;;;;;;;;16.75;13.00;;;;;17.45;51.99;100850.56;5080565;28;45493;-60
2023/08/29 07:14:58;;;;;;;;;11.25;10.25;;;;;17.53;51.92;100851.13;5080281;28;45533;-60
2023/08/29 07:17:23;;;;;;;;;11.00;10.00;;;;;17.55;51.67;100854.56;5080429;28;45236;-60
2023/08/29 07:19:48;;;;;;;;;8.25;7.75;;;;;17.59;51.81;100852.66;5080676;27;45315;-60
2023/08/29 07:22:14;;;;;;;;;8.00;8.00;;;;;17.61;51.91;100849.94;5080365;27;45229;-60
2023/08/29 07:24:39;;;;;;;;;11.00;10.75;;;;;17.64;52.21;100855.13;5080566;27;45211;-60
2023/08/29 07:27:06;;;;;;;;;11.75;10.00;;;;;17.64;52.15;100855.97;5078568;28;50734;-60
2023/08/29 07:29:31;;;;;;;;;14.50;12.75;;;;;17.70;52.06;100854.88;5113437;27;45269;-60
2023/08/29 07:31:57;;;;;;;;;13.00;11.50;;;;;17.74;52.10;100859.13;5080289;27;45177;-60
2023/08/29 07:34:22;;;;;;;;;12.50;8.00;;;;;17.77;52.45;100858.13;5080463;27;45577;-60
2023/08/29 07:36:48;;;;;;;;;9.75;9.25;;;;;17.80;52.22;100855.34;5079913;27;45292;-60
2023/08/29 07:39:16;;;;;;;;;9.50;9.50;;;;;17.83;52.04;100847.22;5080506;27;45175;-60
2023/08/29 07:41:41;;;;;;;;;16.25;12.00;;;;;17.91;51.86;100846.91;5080215;27;45387;-60
2023/08/29 07:44:07;;;;;;;;;9.25;8.25;;;;;17.96;52.02;100855.56;5080367;27;45295;-60
2023/08/29 07:46:33;;;;;;;;;9.00;9.00;;;;;18.00;52.34;100852.72;5079979;27;45436;-60
2023/08/29 07:48:58;;;;;;;;;13.50;11.00;;;;;18.04;51.98;100858.78;5080192;28;45341;-60
2023/08/29 07:51:23;;;;;;;;;13.25;10.50;;;;;18.10;52.14;100847.88;5080026;27;45441;-60
2023/08/29 07:53:49;;;;;;;;;8.00;8.00;;;;;18.14;52.21;100848.59;5080265;27;45212;-60
2023/08/29 07:56:14;;;;;;;;;10.50;9.50;;;;;18.17;52.49;100846.66;5079730;27;45389;-60
2023/08/29 07:58:39;;;;;;;;;12.25;11.50;;;;;18.22;52.00;100845.59;5079892;28;53375;-60
2023/08/29 08:01:05;;;;;;;;;11.50;7.75;;;;;18.25;52.47;100849.00;5080035;27;45310;-60
2023/08/29 08:03:30;;;;;;;;;10.00;10.00;;;;;18.28;52.31;100847.97;5080274;27;46600;-60
2023/08/29 08:05:56;;;;;;;;;8.75;7.00;;;;;18.32;52.04;100852.22;5079343;27;51902;-60
2023/08/29 08:08:21;;;;;;;;;9.00;7.25;;;;;18.39;52.08;100848.38;5078399;28;45332;-60
2023/08/29 08:10:47;;;;;;;;;10.00;10.00;;;;;18.45;52.49;100847.22;5079987;27;45296;-60
2023/08/29 08:13:12;;;;;;;;;11.50;9.75;;;;;18.48;52.46;100847.94;5079829;27;45248;-60
2023/08/29 08:15:37;;;;;;;;;14.50;11.25;;;;;18.54;52.08;100848.59;5079682;27;46015;-60
2023/08/29 08:18:03;;;;;;;;;13.75;12.25;;;;;18.60;52.26;100845.66;5078215;28;45322;-60
2023/08/29 08:20:28;;;;;;;;;11.00;9.75;;;;;18.66;52.16;100840.88;5079947;27;45156;-60
2023/08/29 08:22:54;;;;;;;;;7.00;7.00;;;;;18.71;52.06;100839.84;5079451;28;45518;-60
2023/08/29 08:25:19;;;;;;;;;6.75;6.75;;;;;18.78;52.16;100847.47;5079369;27;47240;-60
2023/08/29 08:27:44;;;;;;;;;12.50;10.00;;;;;18.83;51.99;100842.78;5079527;27;45288;-60
2023/08/29 08:30:10;;;;;;;;;9.50;8.75;;;;;18.89;52.25;100840.75;5080148;27;45383;-60
2023/08/29 08:32:36;;;;;;;;;9.75;6.50;;;;;18.95;52.55;100840.50;5079506;27;45337;-60
2023/08/29 08:35:04;;;;;;;;;7.50;7.50;;;;;19.00;52.03;100838.47;5079563;27;46007;-60
2023/08/29 08:37:31;;;;;;;;;8.75;8.75;;;;;19.05;51.96;100838.25;5095065;27;45858;-60
2023/08/29 08:39:57;;;;;;;;;15.50;9.00;;;;;19.11;52.07;100832.66;5079788;28;45286;-60
2023/08/29 08:42:22;;;;;;;;;8.50;8.50;;;;;19.15;52.36;100831.56;5082890;28;45324;-60
2023/08/29 08:44:48;;;;;;;;;9.75;8.25;;;;;19.25;52.09;100837.28;5082918;27;46069;-60
2023/08/29 08:47:13;;;;;;;;;9.00;9.00;;;;;19.30;51.81;100833.44;5082626;27;45268;-61
2023/08/29 08:49:39;;;;;;;;;9.50;9.50;;;;;19.36;52.00;100836.75;5083197;27;45432;-60
2023/08/29 08:52:07;;;;;;;;;13.00;9.50;;;;;19.43;51.67;100841.72;5082551;27;45496;-60
2023/08/29 08:54:32;;;;;;;;;8.25;8.25;;;;;19.51;51.95;100843.13;5082807;28;46679;-60
2023/08/29 08:56:58;;;;;;;;;5.00;5.00;;;;;19.56;51.26;100835.75;5082610;27;45308;-60
2023/08/29 08:59:27;;;;;;;;;7.50;5.75;;;;;19.63;51.40;100832.72;5083051;27;45306;-60
2023/08/29 09:01:55;;;;;;;;;4.75;4.50;;;;;19.70;51.37;100835.94;5082788;27;45529;-60
2023/08/29 09:04:22;;;;;;;;;6.75;6.00;;;;;19.75;51.19;100833.88;5082564;27;46477;-60
2023/08/29 09:06:48;;;;;;;;;6.50;5.00;;;;;19.81;51.01;100835.41;5082210;27;45256;-60
2023/08/29 09:09:17;;;;;;;;;6.25;6.00;;;;;19.83;51.00;100833.53;5082836;28;45233;-60
2023/08/29 09:11:43;;;;;;;;;6.50;5.00;;;;;19.91;51.05;100833.13;5082567;27;45182;-60
2023/08/29 09:14:08;;;;;;;;;5.75;5.75;;;;;19.96;50.93;100833.75;5081099;28;45987;-60
2023/08/29 09:16:37;;;;;;;;;6.50;6.00;;;;;20.02;51.17;100832.56;5082570;27;45396;-60
2023/08/29 09:19:06;;;;;;;;;6.00;6.00;;;;;20.07;51.09;100831.38;5082511;27;45420;-60
2023/08/29 09:21:31;;;;;;;;;5.50;5.00;;;;;20.13;51.05;100825.72;5082295;28;45179;-60
2023/08/29 09:23:56;;;;;;;;;4.25;4.25;;;;;20.19;50.59;100829.88;5082096;27;46540;-60
2023/08/29 09:26:30;;;;;;;;;6.00;6.00;;;;;20.28;50.80;100834.72;5082288;27;45342;-60
2023/08/29 09:28:55;;;;;;;;;7.00;5.25;;;;;20.32;50.42;100819.41;5082312;27;45240;-61
2023/08/29 09:31:20;;;;;;;;;7.00;7.00;;;;;20.45;50.24;100825.81;5115499;27;45305;-60
2023/08/29 09:33:47;;;;;;;;;6.50;6.00;;;;;20.53;50.44;100829.88;5082116;28;46034;-60
2023/08/29 09:36:12;;;;;;;;;5.00;5.00;;;;;20.60;50.25;100826.78;5082118;27;45245;-60
2023/08/29 09:38:40;;;;;;;;;6.00;4.00;;;;;20.66;50.41;100819.38;5082230;27;45461;-60
2023/08/29 09:41:13;;;;;;;;;6.75;6.25;;;;;20.71;49.90;100820.88;5080653;28;45564;-60
2023/08/29 09:43:47;;;;;;;;;6.00;6.00;;;;;20.77;49.54;100819.69;5081820;27;46241;-60
2023/08/29 09:46:12;;;;;;;;;5.00;5.00;;;;;20.80;49.75;100824.84;5081781;27;45238;-60
2023/08/29 09:48:54;;;;;;;;;5.75;4.75;;;;;20.86;49.51;100818.31;5081985;27;45330;-60
2023/08/29 09:51:20;;;;;;;;;5.75;4.00;;;;;20.97;49.82;100823.03;5080471;27;45256;-60
2023/08/29 09:53:46;;;;;;;;;4.00;4.00;;;;;21.10;49.48;100821.38;5081620;27;46502;-60
2023/08/29 09:56:12;;;;;;;;;2.25;2.25;;;;;21.23;49.79;100816.19;5081670;27;45221;-60
2023/08/29 09:58:38;;;;;;;;;6.75;5.00;;;;;21.40;49.53;100813.41;5081766;27;45310;-60
2023/08/29 10:01:07;;;;;;;;;4.00;3.00;;;;;21.56;49.01;100812.53;5081898;27;45331;-60
2023/08/29 10:03:35;;;;;;;;;4.00;3.00;;;;;21.74;49.12;100810.56;5081466;27;46206;-60
2023/08/29 10:06:05;;;;;;;;;4.25;1.75;;;;;21.91;48.81;100810.41;5081436;27;45339;-60
2023/08/29 10:08:37;;;;;;;;;4.00;3.00;;;;;22.08;49.11;100806.69;5068742;28;45367;-60
2023/08/29 10:11:03;;;;;;;;;1.75;1.75;;;;;22.26;49.25;100803.81;5081341;27;45234;-60
2023/08/29 10:13:29;;;;;;;;;9.00;7.75;;;;;22.43;48.72;100791.22;5097126;27;46815;-60
2023/08/29 10:15:57;;;;;;;;;4.25;3.50;;;;;22.59;48.59;100801.84;5080049;28;45340;-60
2023/08/29 10:18:23;;;;;;;;;3.50;3.00;;;;;22.70;48.48;100799.31;5081616;27;45370;-60
2023/08/29 10:20:49;;;;;;;;;5.25;2.50;;;;;22.85;48.26;100800.16;5081229;27;45449;-60
2023/08/29 10:23:17;;;;;;;;;3.00;3.00;;;;;22.99;48.20;100797.44;5081394;27;45241;-60
2023/08/29 10:25:43;;;;;;;;;3.00;2.25;;;;;23.14;47.98;100786.66;5081175;28;45442;-60
2023/08/29 10:28:11;;;;;;;;;4.00;4.00;;;;;23.37;48.06;100790.53;5081448;27;45407;-60
2023/08/29 10:30:42;;;;;;;;;2.50;2.50;;;;;23.62;47.84;100792.41;5081201;27;45237;-60
2023/08/29 10:33:08;;;;;;;;;3.00;3.00;;;;;23.89;47.70;100786.09;5081354;27;45249;-60
2023/08/29 10:35:34;;;;;;;;;3.00;3.00;;;;;24.20;48.10;100783.09;5081216;27;45303;-60
2023/08/29 10:38:01;;;;;;;;;7.25;3.50;;;;;24.50;47.84;100782.72;5081253;27;45412;-60
2023/08/29 10:40:34;;;;;;;;;3.00;3.00;;;;;24.79;47.11;100775.25;5080904;27;45484;-60
2023/08/29 10:43:00;;;;;;;;;5.00;3.50;;;;;25.07;47.13;100777.69;5081055;27;47152;-60
2023/08/29 10:45:49;;;;;;;;;2.75;2.75;;;;;25.29;46.96;100771.56;5080969;27;45330;-60
2023/08/29 10:48:18;;;;;;;;;6.50;4.00;;;;;25.46;46.68;100781.94;5080939;28;45361;-60
2023/08/29 10:51:08;;;;;;;;;4.00;4.00;;;;;25.57;45.93;100778.44;5079495;28;45376;-60
2023/08/29 10:53:45;;;;;;;;;3.75;3.00;;;;;25.66;45.56;100767.91;5080531;27;45379;-60
2023/08/29 10:56:12;;;;;;;;;4.00;4.00;;;;;25.65;45.20;100769.75;5080846;27;45303;-60
2023/08/29 10:58:39;;;;;;;;;3.00;3.00;;;;;25.63;45.39;100771.69;5080864;27;45294;-60
2023/08/29 11:01:06;;;;;;;;;6.00;4.50;;;;;25.56;45.09;100770.44;5096417;27;45537;-60
2023/08/29 11:03:51;;;;;;;;;5.00;5.00;;;;;25.49;44.93;100771.94;5080205;27;45492;-60
2023/08/29 11:06:17;;;;;;;;;5.50;5.50;;;;;25.38;44.18;100767.34;5080254;27;45571;-61
2023/08/29 11:08:43;;;;;;;;;3.25;3.00;;;;;25.30;44.58;100766.06;5080756;28;45542;-60
2023/08/29 11:11:19;;;;;;;;;4.00;3.25;;;;;25.24;44.64;100765.69;5078959;28;45279;-60
2023/08/29 11:13:59;;;;;;;;;3.00;3.00;;;;;25.20;43.98;100762.38;5080266;27;46369;-60
2023/08/29 11:16:34;;;;;;;;;5.00;5.00;;;;;25.22;43.63;100765.81;5080352;27;45346;-60
2023/08/29 11:19:16;;;;;;;;;4.75;3.75;;;;;25.30;43.87;100760.69;5080427;27;45464;-60